• Join FlightAware (Why Join?)
  • Login
  • US Flag 
02:28PM EDT


 

Airport Tracker/Info


-or-


 

Live Flight TrackerFlight Track Log ✈ N361EA ✈ 26-May-2013 ✈ KLWT - KEAT

Flight Track Log - Related Links

Times and Time Zones

All times are in EDT time to prevent confusion due to time zone crossing. See the N361EA flight status page for this flight to view local times or setup timezone preferences in your user account.

Time Position Orientation Groundspeed Altitude Reporting Facility
EDT Latitude Longitude Course Direction KTS MPH feet Rate Location/Type
07:25PM 47.0703 -109.7139 270° West 163 188 10,900  Level Salt Lake Center
07:26PM 47.0753 -109.7722 277° West 166 191 12,200 1,380 Climbing Salt Lake Center
07:27PM 47.0814 -109.8481 277° West 182 209 13,800 1,440 Climbing Salt Lake Center
07:28PM 47.0867 -109.9244 276° West 187 215 15,200 1,440 Climbing Salt Lake Center
07:29PM 47.0903 -110.0605 281° West  Level FlightAware Approximate
07:29PM 47.0931 -110.0161 276° West 189 217 16,800  Level Salt Lake Center
07:30PM 47.1000 -110.1595 270° West  Level FlightAware Approximate
07:30PM 47.0983 -110.0922 276° West 188 216 17,800  Level Salt Lake Center
07:31PM 47.1047 -110.1694 277° West 190 219 18,800 840 Climbing Salt Lake Center
07:32PM 47.1108 -110.2508 276° West 197 227 19,600 840 Climbing Salt Lake Center
07:33PM 47.1167 -110.3350 276° West 204 235 20,600 1,020 Climbing Salt Lake Center
07:34PM 47.1219 -110.4178 275° West 204 235 21,700 960 Climbing Salt Lake Center
07:35PM 47.1275 -110.5008 276° West 204 235 22,600 720 Climbing Salt Lake Center
07:36PM 47.1336 -110.5828 276° West 204 235 23,200 540 Climbing Salt Lake Center
07:37PM 47.1397 -110.6667 276° West 206 237 23,800 360 Climbing Salt Lake Center
07:38PM 47.1450 -110.7544 275° West 211 243 24,000 180 Climbing Salt Lake Center
07:39PM 47.1531 -110.8686 276° West 228 262 24,200 300 Climbing Salt Lake Center
07:40PM 47.1592 -110.9614 276° West 230 265 24,700 660 Climbing Salt Lake Center
07:41PM 47.1644 -111.0497 275° West 222 255 25,600 600 Climbing Salt Lake Center
07:42PM 47.1711 -111.1317 277° West 208 239 26,000 180 Climbing Salt Lake Center
07:43PM 47.1756 -111.2231 274° West 216 249 26,000 240 Level Salt Lake Center
07:44PM 47.1817 -111.3197 275° West 230 265 26,600 600 Climbing Salt Lake Center
07:45PM 47.1875 -111.4111 275° West 228 262 27,300 660 Climbing Salt Lake Center
07:46PM 47.1931 -111.4994 275° West 221 254 28,000 300 Climbing Salt Lake Center
07:47PM 47.1986 -111.5878 275° West 217 250 28,000  Level Salt Lake Center
07:48PM 47.2047 -111.6850 275° West 230 265 28,000  Level Salt Lake Center
07:49PM 47.2108 -111.7881 275° West 246 283 28,000  Level Salt Lake Center
07:50PM 47.2175 -111.9117 275° West 252 290 28,000  Level Salt Lake Center
07:51PM 47.2239 -112.0147 275° West 253 291 28,000  Level Salt Lake Center
07:52PM 47.2289 -112.1192 274° West 254 292 28,000  Level Salt Lake Center
07:53PM 47.2353 -112.2236 275° West 257 296 28,000  Level Salt Lake Center
07:54PM 47.2406 -112.3272 274° West 256 295 28,000  Level Salt Lake Center
07:55PM 47.2461 -112.4342 274° West 259 298 28,000  Level Salt Lake Center
07:56PM 47.2517 -112.5394 274° West 259 298 28,000  Level Salt Lake Center
07:57PM 47.2575 -112.6450 275° West 258 297 28,000  Level Salt Lake Center
07:58PM 47.2631 -112.7508 274° West 260 299 28,000  Level Salt Lake Center
07:59PM 47.2675 -112.8544 274° West 256 295 28,000  Level Salt Lake Center
08:00PM 47.2736 -112.9658 275° West 261 300 28,000  Level Salt Lake Center
08:01PM 47.2781 -113.0708 274° West 259 298 28,000  Level Salt Lake Center
08:02PM 47.2844 -113.1956 274° West 256 295 28,000  Level Salt Lake Center
08:03PM 47.2883 -113.3006 273° West 256 295 28,000  Level Salt Lake Center
08:04PM 47.2939 -113.4047 275° West 256 295 28,000  Level Salt Lake Center
08:05PM 47.2992 -113.5069 274° West 251 289 28,000  Level Salt Lake Center
08:06PM 47.3039 -113.6114 274° West 255 293 28,000  Level Salt Lake Center
08:07PM 47.3081 -113.7167 273° West 257 296 28,000  Level Salt Lake Center
08:08PM 47.3122 -113.8225 273° West 260 299 28,000  Level Salt Lake Center
08:09PM 47.3161 -113.9300 273° West 264 304 28,000  Level Salt Lake Center
08:11PM 47.3211 -114.0372 274° West 262 302 28,000  Level Salt Lake Center
08:12PM 47.3258 -114.1444 274° West 264 304 28,000  Level Salt Lake Center
08:13PM 47.3294 -114.2528 273° West 264 304 28,000  Level Salt Lake Center
08:14PM 47.3342 -114.3811 273° West 261 300 28,000  Level Salt Lake Center
08:15PM 47.3383 -114.4889 273° West 263 303 28,000  Level Salt Lake Center
08:16PM 47.3414 -114.5956 272° West 259 298 28,000  Level Salt Lake Center
08:16PM 47.3436 -114.6394 274° West 259 298 28,000  Level Seattle Center
08:17PM 47.3478 -114.7444 273° West 258 297 28,000  Level Seattle Center
08:18PM 47.3506 -114.8528 272° West 262 302 28,000  Level Seattle Center
08:19PM 47.3539 -114.9583 273° West 259 298 28,000  Level Seattle Center
08:20PM 47.3578 -115.0664 273° West 263 303 28,000  Level Seattle Center
08:21PM 47.3600 -115.1722 272° West 260 299 28,000  Level Seattle Center
08:22PM 47.3639 -115.2786 273° West 260 299 28,000  Level Seattle Center
08:23PM 47.3678 -115.3853 273° West 261 300 28,000  Level Seattle Center
08:24PM 47.3706 -115.4889 272° West 255 293 28,000  Level Seattle Center
08:25PM 47.3733 -115.5956 272° West 260 299 28,000  Level Seattle Center
08:26PM 47.3750 -115.7006 271° West 258 297 28,000  Level Seattle Center
08:27PM 47.3778 -115.8189 272° West 259 298 28,000  Level Seattle Center
08:28PM 47.3808 -115.9247 272° West 260 299 28,000  Level Seattle Center
08:29PM 47.3833 -116.0292 272° West 258 297 28,000  Level Seattle Center
08:30PM 47.3850 -116.1336 271° West 256 295 28,000  Level Seattle Center
08:31PM 47.3861 -116.2378 271° West 256 295 28,000  Level Seattle Center
08:32PM 47.3889 -116.3431 272° West 256 295 28,000  Level Seattle Center
08:33PM 47.3908 -116.4461 272° West 253 291 28,000  Level Seattle Center
08:34PM 47.3931 -116.5497 272° West 253 291 28,000  Level Seattle Center
08:35PM 47.3950 -116.6547 272° West 255 293 28,000  Level Seattle Center
08:36PM 47.3958 -116.7583 271° West 254 292 28,000  Level Seattle Center
08:37PM 47.3978 -116.8625 272° West 253 291 28,000  Level Seattle Center
08:38PM 47.3983 -116.9672 270° West 253 291 28,000  Level Seattle Center
08:39PM 47.3997 -117.0708 271° West 251 289 28,000  Level Seattle Center
08:40PM 47.4022 -117.1753 272° West 251 289 28,000  Level Seattle Center
08:41PM 47.4031 -117.2797 271° West 252 290 28,000 -240 Level Seattle Center
08:42PM 47.4047 -117.3875 271° West 255 293 27,600 -480 Descending Seattle Center
08:43PM 47.4050 -117.4947 270° West 263 303 27,100 -540 Descending Seattle Center
08:44PM 47.4061 -117.6053 271° West 268 308 26,600 -540 Descending Seattle Center
08:45PM 47.4072 -117.7156 271° West 269 310 26,100 -540 Descending Seattle Center
08:46PM 47.4075 -117.8261 270° West 270 311 25,600 -540 Descending Seattle Center
08:47PM 47.4086 -117.9372 271° West 270 311 25,100 -540 Descending Seattle Center
08:48PM 47.4083 -118.0486 270° West 271 312 24,600 -540 Descending Seattle Center
08:49PM 47.4089 -118.1564 270° West 267 307 24,100 -540 Descending Seattle Center
08:50PM 47.4089 -118.2669 270° West 269 310 23,600 -540 Descending Seattle Center
08:51PM 47.4106 -118.3772 271° West 269 310 23,100 -600 Descending Seattle Center
08:52PM 47.4089 -118.5083 269° West 267 307 22,500 -600 Descending Seattle Center
08:53PM 47.4086 -118.6203 270° West 271 312 22,000 -540 Descending Seattle Center
08:54PM 47.4097 -118.7300 271° West 270 311 21,500 -540 Descending Seattle Center
08:55PM 47.4086 -118.8381 269° West 266 306 21,000 -720 Descending Seattle Center
08:56PM 47.4092 -118.9497 270° West 269 310 20,100 -960 Descending Seattle Center
08:57PM 47.4086 -119.0644 270° West 275 316 19,100 -1,020 Descending Seattle Center
08:58PM 47.4086 -119.1767 270° West 275 316 18,100 -1,020 Descending Seattle Center
08:59PM 47.4078 -119.2867 269° West 270 311 17,100 -1,200 Descending Seattle Center
09:01PM 47.4064 -119.3967 269° West 270 311 15,700 -1,440 Descending Seattle Center
09:02PM 47.4056 -119.5067 269° West 268 308 14,200 -1,440 Descending Seattle Center
09:03PM 47.4044 -119.6139 269° West 263 303 12,800 -1,740 Descending Seattle Center
09:04PM 47.4028 -119.7194 269° West 259 298 10,700 -2,280 Descending Seattle Center
09:05PM 47.3933 -119.8236 262° West 255 293 8,200 -2,460 Descending Seattle Center